createdAt,value
2022-11-14T00:00:57.069Z,70.01
2022-11-14T00:03:42.297Z,70.12
2022-11-14T00:06:27.445Z,70.35
2022-11-14T00:09:13.147Z,70.44
2022-11-14T00:11:58.275Z,70.69
2022-11-14T00:14:43.648Z,70.36
2022-11-14T00:17:28.881Z,70.28
2022-11-14T00:20:17.287Z,70.05
2022-11-14T00:23:02.521Z,70.15
2022-11-14T00:25:48.638Z,69.97
2022-11-14T00:28:34.124Z,67.36
2022-11-14T00:31:19.361Z,67.13
2022-11-14T00:34:04.814Z,67.03
2022-11-14T00:36:50.383Z,68.68
2022-11-14T00:39:35.272Z,68.69
2022-11-14T00:42:20.601Z,68.96
2022-11-14T00:45:06.131Z,68.97
2022-11-14T00:47:51.358Z,69.39
2022-11-14T00:50:37.954Z,69.33
2022-11-14T00:53:23.125Z,69.89
2022-11-14T00:56:09.045Z,69.90
2022-11-14T00:58:54.427Z,69.52
2022-11-14T01:01:39.940Z,70.13
2022-11-14T01:04:25.390Z,69.85
2022-11-14T01:07:10.600Z,69.87
2022-11-14T01:09:56.233Z,69.71
2022-11-14T01:12:41.576Z,69.98
2022-11-14T01:15:27.071Z,69.64
2022-11-14T01:18:14.692Z,68.66
2022-11-14T01:21:00.161Z,68.54
2022-11-14T01:23:45.371Z,69.05
2022-11-14T01:26:30.635Z,68.41
2022-11-14T01:29:15.791Z,68.98
2022-11-14T01:32:01.563Z,68.76
2022-11-14T01:34:46.539Z,69.28
2022-11-14T01:37:32.062Z,69.30
2022-11-14T01:40:17.613Z,69.27
2022-11-14T01:43:23.039Z,68.89
2022-11-14T01:46:38.293Z,68.92
2022-11-14T01:49:37.576Z,69.24
2022-11-14T01:52:26.004Z,69.73
2022-11-14T01:55:11.194Z,69.46
2022-11-14T01:57:57.095Z,69.27
2022-11-14T02:00:43.217Z,68.55
2022-11-14T02:03:28.292Z,68.79
2022-11-14T02:06:15.440Z,69.08
2022-11-14T02:09:03.412Z,69.78
2022-11-14T02:11:48.398Z,70.32
2022-11-14T02:14:34.562Z,70.35
2022-11-14T02:17:29.609Z,70.42
2022-11-14T02:20:20.679Z,70.09
2022-11-14T02:23:06.061Z,70.31
2022-11-14T02:25:51.175Z,70.16
2022-11-14T02:28:36.512Z,70.04
2022-11-14T02:31:21.764Z,70.24
2022-11-14T02:34:07.212Z,69.82
2022-11-14T02:36:52.559Z,69.19
2022-11-14T02:39:39.271Z,69.39
2022-11-14T02:42:24.242Z,69.71
2022-11-14T02:45:10.120Z,70.07
2022-11-14T02:47:55.162Z,69.90
2022-11-14T02:50:40.408Z,70.23
2022-11-14T02:53:25.479Z,69.54
2022-11-14T02:56:10.814Z,68.40
2022-11-14T02:58:55.960Z,68.36
2022-11-14T03:01:41.244Z,68.03
2022-11-14T03:04:26.832Z,68.60
2022-11-14T03:07:12.270Z,68.96
2022-11-14T03:09:57.480Z,69.41
2022-11-14T03:12:42.788Z,69.87
2022-11-14T03:15:27.900Z,69.83
2022-11-14T03:18:13.384Z,69.90
2022-11-14T03:21:24.934Z,69.37
2022-11-14T03:24:10.415Z,69.14
2022-11-14T03:26:55.575Z,69.45
2022-11-14T03:29:40.890Z,69.40
2022-11-14T03:32:25.928Z,69.51
2022-11-14T03:35:11.488Z,68.62
2022-11-14T03:37:56.975Z,67.83
2022-11-14T03:40:42.167Z,68.00
2022-11-14T03:43:31.755Z,67.17
2022-11-14T03:46:16.737Z,67.51
2022-11-14T03:49:02.511Z,67.06
2022-11-14T03:51:48.095Z,68.48
2022-11-14T03:54:33.285Z,69.22
2022-11-14T03:57:18.643Z,69.94
2022-11-14T04:00:04.317Z,70.45
2022-11-14T04:02:49.498Z,70.66
2022-11-14T04:05:34.580Z,70.28
2022-11-14T04:08:19.862Z,70.68
2022-11-14T04:11:04.836Z,70.76
2022-11-14T04:13:50.322Z,70.22
2022-11-14T04:16:35.596Z,70.13
2022-11-14T04:19:20.774Z,69.49
2022-11-14T04:22:06.302Z,69.76
2022-11-14T04:24:51.670Z,69.87
2022-11-14T04:27:37.021Z,70.07
2022-11-14T04:30:22.168Z,70.54
2022-11-14T04:33:07.332Z,70.35
2022-11-14T04:35:52.795Z,69.87
2022-11-14T04:38:39.335Z,69.72
2022-11-14T04:41:24.384Z,70.40
2022-11-14T04:44:09.511Z,69.47
2022-11-14T04:46:54.862Z,69.57
2022-11-14T04:49:40.220Z,70.01
2022-11-14T04:52:25.748Z,69.80
2022-11-14T04:55:11.009Z,69.28
2022-11-14T04:57:57.690Z,68.97
2022-11-14T05:00:42.722Z,69.84
2022-11-14T05:03:28.166Z,69.32
2022-11-14T05:06:13.372Z,69.21
2022-11-14T05:08:58.746Z,69.80
2022-11-14T05:11:44.103Z,69.92
2022-11-14T05:14:29.489Z,69.89
2022-11-14T05:17:15.199Z,69.01
2022-11-14T05:20:00.254Z,69.41
2022-11-14T05:22:45.351Z,69.36
2022-11-14T05:25:30.612Z,69.68
2022-11-14T05:28:16.140Z,69.83
2022-11-14T05:31:09.550Z,69.34
2022-11-14T05:33:54.623Z,68.95
2022-11-14T05:36:39.908Z,69.42
2022-11-14T05:39:26.043Z,69.63
2022-11-14T05:42:11.205Z,70.53
2022-11-14T05:44:56.611Z,69.69
2022-11-14T05:47:41.874Z,70.24
2022-11-14T05:50:26.974Z,70.44
2022-11-14T05:53:12.120Z,70.54
2022-11-14T05:56:02.587Z,70.68
2022-11-14T05:58:47.594Z,70.05
2022-11-14T06:01:33.151Z,70.24
2022-11-14T06:04:18.272Z,70.04
2022-11-14T06:07:03.802Z,70.84
2022-11-14T06:09:49.331Z,70.67
2022-11-14T06:12:34.598Z,69.93
2022-11-14T06:15:19.884Z,69.83
2022-11-14T06:18:05.151Z,69.61
2022-11-14T06:20:50.187Z,69.94
2022-11-14T06:23:35.878Z,69.51
2022-11-14T06:26:24.174Z,69.83
2022-11-14T06:29:10.063Z,70.42
2022-11-14T06:31:55.075Z,70.59
2022-11-14T06:34:40.067Z,70.80
2022-11-14T06:37:25.011Z,70.87
2022-11-14T06:40:10.869Z,69.29
2022-11-14T06:42:56.651Z,69.88
2022-11-14T06:45:41.908Z,70.69
2022-11-14T06:48:27.295Z,70.25
2022-11-14T06:51:14.123Z,70.50
2022-11-14T06:53:59.147Z,71.12
2022-11-14T06:56:44.350Z,69.61
2022-11-14T06:59:29.356Z,70.77
2022-11-14T07:02:20.537Z,71.28
2022-11-14T07:05:07.243Z,71.21
2022-11-14T07:07:52.419Z,71.20
2022-11-14T07:10:37.924Z,70.65
2022-11-14T07:13:23.284Z,71.00
2022-11-14T07:16:09.061Z,70.36
2022-11-14T07:18:54.446Z,69.92
2022-11-14T07:21:39.530Z,70.49
2022-11-14T07:24:24.919Z,70.72
2022-11-14T07:27:12.712Z,70.23
2022-11-14T07:29:57.734Z,69.88
2022-11-14T07:32:42.867Z,69.76
2022-11-14T07:35:28.236Z,69.81
2022-11-14T07:38:18.718Z,70.01
2022-11-14T07:41:09.828Z,69.97
2022-11-14T07:43:55.151Z,69.75
2022-11-14T07:46:40.430Z,70.53
2022-11-14T07:49:25.798Z,70.32
2022-11-14T07:52:11.094Z,70.21
2022-11-14T07:54:56.303Z,70.60
2022-11-14T07:57:46.473Z,70.82
2022-11-14T08:00:34.125Z,70.92
2022-11-14T08:03:19.585Z,70.18
2022-11-14T08:06:08.019Z,70.54
2022-11-14T08:08:53.577Z,70.90
2022-11-14T08:11:50.694Z,70.54
2022-11-14T08:14:36.275Z,69.89
2022-11-14T08:17:22.674Z,69.44
2022-11-14T08:20:09.202Z,69.62
2022-11-14T08:23:05.194Z,68.70
2022-11-14T08:25:50.348Z,68.96
2022-11-14T08:28:35.482Z,69.52
2022-11-14T08:31:21.498Z,69.42
2022-11-14T08:34:06.865Z,68.76
2022-11-14T08:36:52.080Z,69.42
2022-11-14T08:39:37.512Z,69.88
2022-11-14T08:42:22.596Z,69.87
2022-11-14T08:45:08.136Z,69.18
2022-11-14T08:47:53.963Z,70.21
2022-11-14T08:50:39.430Z,70.11
2022-11-14T08:53:25.088Z,70.80
2022-11-14T08:56:10.703Z,71.48
2022-11-14T08:58:55.996Z,72.65
2022-11-14T09:01:41.210Z,73.39
2022-11-14T09:04:26.388Z,73.17
2022-11-14T09:07:29.310Z,72.86
2022-11-14T09:10:15.526Z,72.14
2022-11-14T09:13:05.195Z,72.36
2022-11-14T09:15:50.500Z,72.30
2022-11-14T09:18:46.535Z,71.66
2022-11-14T09:21:31.590Z,71.59
2022-11-14T09:24:19.759Z,72.34
2022-11-14T09:27:05.695Z,71.94
2022-11-14T09:29:51.620Z,72.98
2022-11-14T09:32:36.983Z,73.16
2022-11-14T09:35:22.901Z,72.88
2022-11-14T09:38:10.815Z,73.26
2022-11-14T09:41:14.604Z,73.86
2022-11-14T09:44:08.622Z,73.25
2022-11-14T09:47:07.760Z,73.26
2022-11-14T09:49:56.414Z,73.56
2022-11-14T09:52:58.555Z,73.42
2022-11-14T09:55:44.082Z,74.01
2022-11-14T09:58:29.545Z,73.55
2022-11-14T10:01:43.982Z,73.50
2022-11-14T10:04:49.264Z,73.55
2022-11-14T10:08:06.399Z,73.48
2022-11-14T10:11:31.626Z,73.16
2022-11-14T10:15:08.771Z,73.52
2022-11-14T10:18:00.100Z,72.59
2022-11-14T10:20:53.466Z,72.38
2022-11-14T10:23:54.059Z,72.67
2022-11-14T10:26:51.894Z,72.60
2022-11-14T10:29:50.436Z,72.56
2022-11-14T10:33:09.300Z,72.21
2022-11-14T10:36:08.603Z,72.00
2022-11-14T10:39:11.838Z,72.22
2022-11-14T10:42:07.169Z,71.63
2022-11-14T10:45:06.574Z,72.30
2022-11-14T10:48:04.350Z,72.59
2022-11-14T10:50:53.676Z,72.35
2022-11-14T10:53:42.035Z,72.33
2022-11-14T10:56:27.046Z,72.58
2022-11-14T10:59:12.433Z,72.50
2022-11-14T11:01:58.960Z,71.89
2022-11-14T11:04:45.405Z,72.45
2022-11-14T11:08:02.948Z,72.29
2022-11-14T11:11:18.964Z,71.97
2022-11-14T11:14:04.552Z,72.55
2022-11-14T11:16:49.560Z,72.85
2022-11-14T11:19:34.830Z,73.99
2022-11-14T11:22:35.654Z,75.00
2022-11-14T11:25:26.388Z,74.28
2022-11-14T11:28:20.732Z,73.99
2022-11-14T11:31:10.629Z,74.12
2022-11-14T11:33:56.249Z,72.72
2022-11-14T11:36:46.185Z,71.85
2022-11-14T11:39:34.181Z,72.21
2022-11-14T11:43:36.594Z,70.74
2022-11-14T11:45:54.077Z,71.33
2022-11-14T11:48:40.262Z,70.63
2022-11-14T11:51:26.841Z,71.74
2022-11-14T11:54:31.723Z,70.69
2022-11-14T11:57:21.934Z,71.22
2022-11-14T12:00:15.623Z,70.68
2022-11-14T12:03:01.476Z,70.39
2022-11-14T12:06:08.783Z,70.58
2022-11-14T12:09:02.242Z,70.66
2022-11-14T12:11:55.882Z,70.55
2022-11-14T12:15:11.439Z,69.66
2022-11-14T12:18:36.167Z,69.68
2022-11-14T12:21:30.823Z,70.05
2022-11-14T12:24:34.870Z,69.96
2022-11-14T12:27:30.211Z,70.21
2022-11-14T12:30:23.379Z,70.08
2022-11-14T12:33:28.269Z,69.80
2022-11-14T12:36:23.747Z,69.16
2022-11-14T12:39:32.449Z,68.78
2022-11-14T12:42:24.651Z,67.94
2022-11-14T12:45:40.902Z,68.46
2022-11-14T12:48:27.216Z,66.92
2022-11-14T12:51:25.111Z,67.47
2022-11-14T12:54:42.869Z,66.43
2022-11-14T12:57:53.187Z,66.49
2022-11-14T13:00:48.651Z,66.38
2022-11-14T13:03:49.304Z,67.03
2022-11-14T13:06:48.593Z,66.13
2022-11-14T13:09:40.765Z,66.60
2022-11-14T13:12:57.751Z,66.12
2022-11-14T13:16:12.836Z,66.65
2022-11-14T13:19:37.705Z,65.70
2022-11-14T13:22:39.760Z,65.65
2022-11-14T13:25:41.140Z,65.87
2022-11-14T13:28:38.372Z,64.61
2022-11-14T13:31:25.300Z,64.55
2022-11-14T13:34:22.128Z,64.89
2022-11-14T13:37:16.599Z,64.68
2022-11-14T13:40:12.058Z,64.93
2022-11-14T13:43:09.474Z,65.09
2022-11-14T13:46:21.629Z,64.79
2022-11-14T13:49:36.950Z,64.52
2022-11-14T13:52:25.518Z,64.08
2022-11-14T13:55:22.297Z,64.98
2022-11-14T13:58:31.082Z,64.31
2022-11-14T14:01:43.924Z,63.74
2022-11-14T14:05:07.024Z,63.63
2022-11-14T14:08:26.314Z,63.30
2022-11-14T14:11:27.511Z,64.03
2022-11-14T14:14:12.804Z,63.49
2022-11-14T14:17:16.990Z,63.41
2022-11-14T14:20:20.136Z,64.51
2022-11-14T14:23:20.547Z,62.72
2022-11-14T14:26:22.150Z,62.90
2022-11-14T14:29:26.281Z,62.72
2022-11-14T14:32:13.198Z,62.97
2022-11-14T14:35:00.468Z,62.53
2022-11-14T14:37:54.037Z,63.15
2022-11-14T14:40:41.150Z,63.14
2022-11-14T14:43:31.485Z,62.89
2022-11-14T14:46:17.457Z,64.22
2022-11-14T14:49:04.593Z,62.76
2022-11-14T14:51:53.209Z,62.88
2022-11-14T14:54:40.954Z,63.98
2022-11-14T14:57:25.904Z,64.03
2022-11-14T15:00:29.534Z,63.95
2022-11-14T15:03:15.055Z,64.94
2022-11-14T15:06:05.514Z,64.48
2022-11-14T15:08:50.879Z,65.50
2022-11-14T15:11:38.089Z,64.29
2022-11-14T15:14:25.314Z,64.68
2022-11-14T15:17:10.831Z,64.51
2022-11-14T15:19:56.290Z,64.67
2022-11-14T15:22:41.547Z,64.53
2022-11-14T15:25:27.084Z,63.90
2022-11-14T15:28:15.670Z,64.09
2022-11-14T15:31:05.098Z,64.21
2022-11-14T15:34:05.572Z,63.56
2022-11-14T15:37:18.396Z,62.55
2022-11-14T15:40:20.566Z,62.73
2022-11-14T15:43:49.230Z,62.79
2022-11-14T15:46:34.158Z,62.41
2022-11-14T15:49:27.116Z,62.29
2022-11-14T15:52:30.917Z,62.44
2022-11-14T15:55:18.159Z,62.73
2022-11-14T16:01:14.008Z,61.66
2022-11-14T16:03:59.126Z,62.03
2022-11-14T16:06:44.609Z,62.16
2022-11-14T16:09:29.885Z,62.16
2022-11-14T16:12:15.328Z,62.34
2022-11-14T16:15:00.657Z,61.42
2022-11-14T16:17:47.570Z,61.48
2022-11-14T16:20:38.013Z,61.72
2022-11-14T16:23:23.585Z,61.98
2022-11-14T16:26:08.560Z,62.92
2022-11-14T16:28:54.201Z,63.44
2022-11-14T16:31:39.508Z,64.20
2022-11-14T16:34:30.719Z,63.68
2022-11-14T16:37:16.145Z,64.56
2022-11-14T16:40:01.639Z,64.46
2022-11-14T16:42:47.396Z,64.67
2022-11-14T16:45:32.706Z,64.69
2022-11-14T16:48:18.059Z,64.96
2022-11-14T16:51:14.890Z,64.99
2022-11-14T16:54:05.522Z,65.14
2022-11-14T16:56:50.917Z,65.49
2022-11-14T16:59:36.415Z,65.97
2022-11-14T17:02:21.715Z,65.79
2022-11-14T17:05:07.620Z,66.16
2022-11-14T17:07:52.631Z,66.33
2022-11-14T17:10:42.253Z,66.52
2022-11-14T17:13:29.259Z,66.36
2022-11-14T17:16:14.318Z,66.01
2022-11-14T17:18:59.623Z,65.75
2022-11-14T17:21:45.122Z,66.39
2022-11-14T17:24:31.510Z,66.63
2022-11-14T17:27:16.866Z,67.27
2022-11-14T17:30:02.096Z,67.09
2022-11-14T17:32:51.336Z,66.87
2022-11-14T17:35:38.935Z,67.01
2022-11-14T17:38:24.330Z,67.08
2022-11-14T17:41:09.271Z,66.72
2022-11-14T17:43:58.782Z,67.02
2022-11-14T17:46:49.571Z,66.71
2022-11-14T17:49:35.116Z,66.87
2022-11-14T17:52:20.439Z,67.19
2022-11-14T17:55:05.849Z,67.45
2022-11-14T17:57:50.986Z,67.00
2022-11-14T18:00:36.131Z,66.81
2022-11-14T18:03:21.676Z,66.78
2022-11-14T18:06:08.915Z,67.22
2022-11-14T18:08:54.295Z,65.71
2022-11-14T18:11:39.283Z,65.50
2022-11-14T18:14:25.465Z,66.00
2022-11-14T18:17:13.250Z,65.84
2022-11-14T18:20:01.597Z,65.22
2022-11-14T18:22:46.698Z,65.29
2022-11-14T18:25:32.183Z,65.20
2022-11-14T18:28:17.765Z,64.60
2022-11-14T18:31:04.519Z,65.01
2022-11-14T18:33:49.629Z,64.47
2022-11-14T18:36:35.139Z,63.81
2022-11-14T18:39:20.434Z,64.34
2022-11-14T18:42:05.817Z,64.89
2022-11-14T18:44:51.269Z,64.81
2022-11-14T18:47:36.598Z,65.08
2022-11-14T18:50:22.019Z,64.81
2022-11-14T18:53:07.689Z,65.83
2022-11-14T18:55:53.165Z,66.51
2022-11-14T18:58:39.859Z,65.72
2022-11-14T19:01:27.042Z,65.87
2022-11-14T19:04:13.061Z,65.60
2022-11-14T19:06:58.502Z,65.64
2022-11-14T19:09:44.514Z,65.57
2022-11-14T19:12:29.510Z,65.83
2022-11-14T19:15:14.616Z,65.30
2022-11-14T19:17:59.614Z,65.42
2022-11-14T19:20:55.893Z,65.99
2022-11-14T19:23:41.066Z,65.71
2022-11-14T19:26:27.903Z,65.47
2022-11-14T19:29:13.740Z,65.02
2022-11-14T19:32:00.796Z,65.57
2022-11-14T19:34:46.378Z,64.94
2022-11-14T19:37:31.707Z,64.60
2022-11-14T19:40:17.186Z,64.41
2022-11-14T19:43:04.074Z,64.68
2022-11-14T19:45:49.372Z,64.67
2022-11-14T19:48:35.633Z,64.62
2022-11-14T19:51:22.352Z,64.51
2022-11-14T19:54:09.810Z,64.55
2022-11-14T19:56:54.794Z,64.92
2022-11-14T19:59:41.257Z,64.79
2022-11-14T20:02:28.614Z,64.86
2022-11-14T20:05:13.666Z,64.77
2022-11-14T20:07:59.083Z,64.61
2022-11-14T20:11:01.046Z,64.48
2022-11-14T20:13:46.484Z,64.80
2022-11-14T20:16:36.687Z,65.85
2022-11-14T20:19:22.170Z,64.87
2022-11-14T20:22:07.467Z,65.38
2022-11-14T20:24:53.171Z,64.66
2022-11-14T20:27:38.286Z,64.17
2022-11-14T20:30:23.971Z,64.40
2022-11-14T20:33:09.395Z,64.58
2022-11-14T20:35:54.705Z,64.50
2022-11-14T20:38:40.260Z,65.23
2022-11-14T20:41:25.687Z,64.77
2022-11-14T20:44:11.018Z,65.27
2022-11-14T20:46:56.902Z,64.99
2022-11-14T20:49:43.386Z,65.35
2022-11-14T20:52:28.598Z,65.29
2022-11-14T20:55:14.586Z,65.56
2022-11-14T20:58:02.841Z,65.02
2022-11-14T21:00:51.691Z,64.69
2022-11-14T21:03:37.633Z,65.34
2022-11-14T21:06:23.140Z,65.61
2022-11-14T21:09:09.645Z,65.55
2022-11-14T21:11:55.711Z,65.66
2022-11-14T21:14:40.964Z,65.24
2022-11-14T21:17:26.135Z,65.57
2022-11-14T21:20:11.416Z,65.00
2022-11-14T21:22:57.001Z,65.06
2022-11-14T21:25:42.198Z,65.02
2022-11-14T21:28:29.429Z,64.87
2022-11-14T21:31:19.227Z,65.24
2022-11-14T21:34:07.370Z,65.25
2022-11-14T21:36:52.623Z,65.48
2022-11-14T21:39:38.054Z,66.00
2022-11-14T21:42:23.580Z,66.10
2022-11-14T21:45:09.508Z,65.78
2022-11-14T21:47:54.701Z,66.08
2022-11-14T21:50:39.844Z,66.12
2022-11-14T21:53:24.795Z,66.48
2022-11-14T21:56:15.562Z,67.06
2022-11-14T21:59:14.254Z,66.60
2022-11-14T22:02:18.277Z,67.11
2022-11-14T22:05:03.753Z,66.77
2022-11-14T22:07:48.667Z,66.89
2022-11-14T22:10:33.661Z,66.47
2022-11-14T22:13:19.052Z,66.04
2022-11-14T22:16:06.221Z,66.13
2022-11-14T22:18:58.051Z,66.14
2022-11-14T22:21:45.923Z,65.92
2022-11-14T22:24:31.394Z,66.17
2022-11-14T22:27:16.708Z,66.02
2022-11-14T22:30:02.138Z,65.89
2022-11-14T22:32:48.103Z,65.74
2022-11-14T22:35:36.792Z,65.73
2022-11-14T22:38:22.467Z,65.93
2022-11-14T22:41:14.639Z,65.51
2022-11-14T22:44:01.182Z,65.42
2022-11-14T22:46:46.733Z,65.09
2022-11-14T22:49:31.933Z,64.87
2022-11-14T22:52:17.228Z,64.66
2022-11-14T22:55:02.328Z,64.72
2022-11-14T22:57:47.734Z,64.21
2022-11-14T23:00:33.063Z,63.88
2022-11-14T23:03:22.362Z,64.24
2022-11-14T23:06:09.053Z,64.62
2022-11-14T23:08:58.010Z,64.34
2022-11-14T23:11:43.548Z,64.23
2022-11-14T23:14:28.675Z,64.08
2022-11-14T23:17:14.144Z,64.51
2022-11-14T23:19:59.442Z,64.34
2022-11-14T23:22:44.611Z,64.91
2022-11-14T23:25:30.097Z,64.86
2022-11-14T23:28:15.496Z,65.07
2022-11-14T23:31:01.480Z,65.18
2022-11-14T23:33:47.631Z,65.52
2022-11-14T23:36:32.909Z,65.19
2022-11-14T23:39:17.956Z,64.64
2022-11-14T23:42:03.458Z,64.38
2022-11-14T23:44:48.930Z,64.61
2022-11-14T23:47:34.293Z,64.62
2022-11-14T23:50:19.596Z,64.96
2022-11-14T23:53:04.474Z,64.83
2022-11-14T23:55:59.774Z,64.33
2022-11-14T23:58:45.510Z,64.10
